sensor_id;sensor_type;location;lat;lon;timestamp;P1;durP1;ratioP1;P2;durP2;ratioP2
6392;SDS011;3229;42.674;23.282;2023-07-22T00:02:22;11.35;;;5.68;;
6392;SDS011;3229;42.674;23.282;2023-07-22T00:04:49;11.75;;;5.63;;
6392;SDS011;3229;42.674;23.282;2023-07-22T00:07:17;13.02;;;5.97;;
6392;SDS011;3229;42.674;23.282;2023-07-22T00:09:44;8.60;;;5.47;;
6392;SDS011;3229;42.674;23.282;2023-07-22T00:12:11;11.32;;;5.30;;
6392;SDS011;3229;42.674;23.282;2023-07-22T00:14:40;8.05;;;5.28;;
6392;SDS011;3229;42.674;23.282;2023-07-22T00:17:07;9.10;;;4.43;;
6392;SDS011;3229;42.674;23.282;2023-07-22T00:19:34;13.77;;;6.00;;
6392;SDS011;3229;42.674;23.282;2023-07-22T00:22:01;10.57;;;6.13;;
6392;SDS011;3229;42.674;23.282;2023-07-22T00:24:28;10.63;;;5.22;;
6392;SDS011;3229;42.674;23.282;2023-07-22T00:26:55;11.88;;;5.50;;
6392;SDS011;3229;42.674;23.282;2023-07-22T00:29:22;10.95;;;5.55;;
6392;SDS011;3229;42.674;23.282;2023-07-22T00:31:50;6.72;;;5.68;;
6392;SDS011;3229;42.674;23.282;2023-07-22T00:34:17;6.43;;;5.43;;
6392;SDS011;3229;42.674;23.282;2023-07-22T00:36:44;9.30;;;5.57;;
6392;SDS011;3229;42.674;23.282;2023-07-22T00:39:13;7.85;;;4.93;;
6392;SDS011;3229;42.674;23.282;2023-07-22T00:41:40;11.38;;;5.65;;
6392;SDS011;3229;42.674;23.282;2023-07-22T00:44:09;6.38;;;5.13;;
6392;SDS011;3229;42.674;23.282;2023-07-22T00:46:36;9.05;;;5.43;;
6392;SDS011;3229;42.674;23.282;2023-07-22T00:49:04;8.10;;;5.38;;
6392;SDS011;3229;42.674;23.282;2023-07-22T00:51:32;10.85;;;6.00;;
6392;SDS011;3229;42.674;23.282;2023-07-22T00:53:59;8.43;;;4.78;;
6392;SDS011;3229;42.674;23.282;2023-07-22T00:56:26;7.78;;;4.93;;
6392;SDS011;3229;42.674;23.282;2023-07-22T00:58:53;9.23;;;5.40;;
6392;SDS011;3229;42.674;23.282;2023-07-22T01:01:19;9.55;;;5.35;;
6392;SDS011;3229;42.674;23.282;2023-07-22T01:03:46;15.20;;;5.68;;
6392;SDS011;3229;42.674;23.282;2023-07-22T01:06:14;8.00;;;4.65;;
6392;SDS011;3229;42.674;23.282;2023-07-22T01:08:43;9.95;;;5.32;;
6392;SDS011;3229;42.674;23.282;2023-07-22T01:11:09;10.55;;;5.60;;
6392;SDS011;3229;42.674;23.282;2023-07-22T01:13:37;12.10;;;5.88;;
6392;SDS011;3229;42.674;23.282;2023-07-22T01:16:04;8.32;;;5.43;;
6392;SDS011;3229;42.674;23.282;2023-07-22T01:18:32;10.45;;;5.95;;
6392;SDS011;3229;42.674;23.282;2023-07-22T01:20:59;7.10;;;5.80;;
6392;SDS011;3229;42.674;23.282;2023-07-22T01:23:27;11.98;;;5.68;;
6392;SDS011;3229;42.674;23.282;2023-07-22T01:25:54;8.40;;;6.00;;
6392;SDS011;3229;42.674;23.282;2023-07-22T01:28:22;11.38;;;5.60;;
6392;SDS011;3229;42.674;23.282;2023-07-22T01:30:49;8.40;;;5.47;;
6392;SDS011;3229;42.674;23.282;2023-07-22T01:33:15;16.95;;;6.47;;
6392;SDS011;3229;42.674;23.282;2023-07-22T01:35:42;10.90;;;5.10;;
6392;SDS011;3229;42.674;23.282;2023-07-22T01:38:09;11.35;;;5.68;;
6392;SDS011;3229;42.674;23.282;2023-07-22T01:40:37;9.15;;;5.50;;
6392;SDS011;3229;42.674;23.282;2023-07-22T01:43:04;16.80;;;6.20;;
6392;SDS011;3229;42.674;23.282;2023-07-22T01:45:31;11.18;;;5.80;;
6392;SDS011;3229;42.674;23.282;2023-07-22T01:47:57;7.65;;;5.85;;
6392;SDS011;3229;42.674;23.282;2023-07-22T01:50:24;10.43;;;5.78;;
6392;SDS011;3229;42.674;23.282;2023-07-22T01:52:51;13.73;;;5.82;;
6392;SDS011;3229;42.674;23.282;2023-07-22T01:55:18;13.25;;;5.45;;
6392;SDS011;3229;42.674;23.282;2023-07-22T01:57:46;11.82;;;5.93;;
6392;SDS011;3229;42.674;23.282;2023-07-22T02:00:13;8.85;;;5.80;;
6392;SDS011;3229;42.674;23.282;2023-07-22T02:02:41;9.30;;;5.88;;
6392;SDS011;3229;42.674;23.282;2023-07-22T02:05:08;17.15;;;5.60;;
6392;SDS011;3229;42.674;23.282;2023-07-22T02:07:35;10.68;;;5.28;;
6392;SDS011;3229;42.674;23.282;2023-07-22T02:10:02;10.77;;;5.60;;
6392;SDS011;3229;42.674;23.282;2023-07-22T02:12:29;10.77;;;6.38;;
6392;SDS011;3229;42.674;23.282;2023-07-22T02:14:57;10.25;;;5.70;;
6392;SDS011;3229;42.674;23.282;2023-07-22T02:17:24;11.25;;;5.88;;
6392;SDS011;3229;42.674;23.282;2023-07-22T02:19:51;10.63;;;5.57;;
6392;SDS011;3229;42.674;23.282;2023-07-22T02:22:18;10.15;;;5.55;;
6392;SDS011;3229;42.674;23.282;2023-07-22T02:24:44;7.68;;;5.82;;
6392;SDS011;3229;42.674;23.282;2023-07-22T02:27:11;10.65;;;5.93;;
6392;SDS011;3229;42.674;23.282;2023-07-22T02:29:38;8.00;;;5.60;;
6392;SDS011;3229;42.674;23.282;2023-07-22T02:32:06;11.15;;;5.75;;
6392;SDS011;3229;42.674;23.282;2023-07-22T02:34:34;9.13;;;5.63;;
6392;SDS011;3229;42.674;23.282;2023-07-22T02:37:02;16.50;;;5.30;;
6392;SDS011;3229;42.674;23.282;2023-07-22T02:39:29;8.40;;;6.03;;
6392;SDS011;3229;42.674;23.282;2023-07-22T02:41:56;8.52;;;6.00;;
6392;SDS011;3229;42.674;23.282;2023-07-22T02:44:23;9.60;;;6.20;;
6392;SDS011;3229;42.674;23.282;2023-07-22T02:46:49;8.02;;;5.68;;
6392;SDS011;3229;42.674;23.282;2023-07-22T02:49:18;12.68;;;5.82;;
6392;SDS011;3229;42.674;23.282;2023-07-22T02:51:44;10.43;;;6.15;;
6392;SDS011;3229;42.674;23.282;2023-07-22T02:54:11;14.95;;;6.45;;
6392;SDS011;3229;42.674;23.282;2023-07-22T02:56:39;8.60;;;5.90;;
6392;SDS011;3229;42.674;23.282;2023-07-22T02:59:06;8.40;;;5.93;;
6392;SDS011;3229;42.674;23.282;2023-07-22T03:01:34;7.05;;;5.68;;
6392;SDS011;3229;42.674;23.282;2023-07-22T03:04:00;10.30;;;6.05;;
6392;SDS011;3229;42.674;23.282;2023-07-22T03:06:29;10.20;;;5.65;;
6392;SDS011;3229;42.674;23.282;2023-07-22T03:08:56;10.13;;;6.35;;
6392;SDS011;3229;42.674;23.282;2023-07-22T03:11:24;9.93;;;6.00;;
6392;SDS011;3229;42.674;23.282;2023-07-22T03:13:52;9.82;;;5.68;;
6392;SDS011;3229;42.674;23.282;2023-07-22T03:16:19;11.18;;;6.25;;
6392;SDS011;3229;42.674;23.282;2023-07-22T03:18:46;14.40;;;6.55;;
6392;SDS011;3229;42.674;23.282;2023-07-22T03:21:13;6.90;;;5.68;;
6392;SDS011;3229;42.674;23.282;2023-07-22T03:23:41;9.35;;;5.53;;
6392;SDS011;3229;42.674;23.282;2023-07-22T03:26:08;12.40;;;5.35;;
6392;SDS011;3229;42.674;23.282;2023-07-22T03:28:35;12.18;;;6.40;;
6392;SDS011;3229;42.674;23.282;2023-07-22T03:31:02;13.85;;;6.50;;
6392;SDS011;3229;42.674;23.282;2023-07-22T03:33:29;8.68;;;6.55;;
6392;SDS011;3229;42.674;23.282;2023-07-22T03:35:56;11.45;;;6.28;;
6392;SDS011;3229;42.674;23.282;2023-07-22T03:38:23;10.60;;;6.47;;
6392;SDS011;3229;42.674;23.282;2023-07-22T03:40:51;11.40;;;6.60;;
6392;SDS011;3229;42.674;23.282;2023-07-22T03:43:19;11.90;;;6.60;;
6392;SDS011;3229;42.674;23.282;2023-07-22T03:45:46;16.10;;;6.43;;
6392;SDS011;3229;42.674;23.282;2023-07-22T03:48:12;7.65;;;5.97;;
6392;SDS011;3229;42.674;23.282;2023-07-22T03:50:39;10.02;;;6.82;;
6392;SDS011;3229;42.674;23.282;2023-07-22T03:53:06;9.32;;;6.00;;
6392;SDS011;3229;42.674;23.282;2023-07-22T03:55:33;9.18;;;6.85;;
6392;SDS011;3229;42.674;23.282;2023-07-22T03:58:01;15.30;;;7.00;;
6392;SDS011;3229;42.674;23.282;2023-07-22T04:00:27;9.20;;;6.65;;
6392;SDS011;3229;42.674;23.282;2023-07-22T04:02:54;11.90;;;6.30;;
6392;SDS011;3229;42.674;23.282;2023-07-22T04:05:21;13.98;;;6.65;;
6392;SDS011;3229;42.674;23.282;2023-07-22T04:07:48;11.50;;;5.95;;
6392;SDS011;3229;42.674;23.282;2023-07-22T04:10:14;11.23;;;6.22;;
6392;SDS011;3229;42.674;23.282;2023-07-22T04:12:41;9.60;;;6.00;;
6392;SDS011;3229;42.674;23.282;2023-07-22T04:15:10;11.10;;;6.32;;
6392;SDS011;3229;42.674;23.282;2023-07-22T04:17:37;8.88;;;5.72;;
6392;SDS011;3229;42.674;23.282;2023-07-22T04:20:05;8.63;;;5.85;;
6392;SDS011;3229;42.674;23.282;2023-07-22T04:22:34;9.27;;;5.95;;
6392;SDS011;3229;42.674;23.282;2023-07-22T04:25:01;9.18;;;5.93;;
6392;SDS011;3229;42.674;23.282;2023-07-22T04:27:27;8.05;;;6.10;;
6392;SDS011;3229;42.674;23.282;2023-07-22T04:29:54;9.50;;;5.93;;
6392;SDS011;3229;42.674;23.282;2023-07-22T04:32:22;9.38;;;5.88;;
6392;SDS011;3229;42.674;23.282;2023-07-22T04:34:49;9.27;;;5.68;;
6392;SDS011;3229;42.674;23.282;2023-07-22T04:37:16;7.07;;;5.68;;
6392;SDS011;3229;42.674;23.282;2023-07-22T04:39:46;11.50;;;6.68;;
6392;SDS011;3229;42.674;23.282;2023-07-22T04:42:14;11.57;;;6.40;;
6392;SDS011;3229;42.674;23.282;2023-07-22T04:44:41;10.85;;;5.90;;
6392;SDS011;3229;42.674;23.282;2023-07-22T04:47:09;11.25;;;6.13;;
6392;SDS011;3229;42.674;23.282;2023-07-22T04:49:37;10.48;;;5.43;;
6392;SDS011;3229;42.674;23.282;2023-07-22T04:52:05;6.25;;;5.35;;
6392;SDS011;3229;42.674;23.282;2023-07-22T04:54:33;12.10;;;5.75;;
6392;SDS011;3229;42.674;23.282;2023-07-22T04:56:59;10.65;;;5.72;;
6392;SDS011;3229;42.674;23.282;2023-07-22T04:59:26;9.85;;;6.05;;
6392;SDS011;3229;42.674;23.282;2023-07-22T05:01:53;15.15;;;5.93;;
6392;SDS011;3229;42.674;23.282;2023-07-22T05:04:20;12.57;;;6.20;;
6392;SDS011;3229;42.674;23.282;2023-07-22T05:06:48;10.57;;;5.60;;
6392;SDS011;3229;42.674;23.282;2023-07-22T05:09:15;11.55;;;6.65;;
6392;SDS011;3229;42.674;23.282;2023-07-22T05:11:42;9.68;;;5.95;;
6392;SDS011;3229;42.674;23.282;2023-07-22T05:14:08;11.63;;;7.35;;
6392;SDS011;3229;42.674;23.282;2023-07-22T05:16:35;9.15;;;6.72;;
6392;SDS011;3229;42.674;23.282;2023-07-22T05:19:02;16.35;;;7.50;;
6392;SDS011;3229;42.674;23.282;2023-07-22T05:21:30;12.73;;;7.38;;
6392;SDS011;3229;42.674;23.282;2023-07-22T05:23:58;11.75;;;7.07;;
6392;SDS011;3229;42.674;23.282;2023-07-22T05:26:24;11.43;;;6.35;;
6392;SDS011;3229;42.674;23.282;2023-07-22T05:28:51;11.20;;;7.13;;
6392;SDS011;3229;42.674;23.282;2023-07-22T05:31:18;10.20;;;6.53;;
6392;SDS011;3229;42.674;23.282;2023-07-22T05:33:45;8.60;;;6.90;;
6392;SDS011;3229;42.674;23.282;2023-07-22T05:36:12;12.40;;;7.28;;
6392;SDS011;3229;42.674;23.282;2023-07-22T05:38:38;12.90;;;7.68;;
6392;SDS011;3229;42.674;23.282;2023-07-22T05:41:07;8.68;;;7.05;;
6392;SDS011;3229;42.674;23.282;2023-07-22T05:43:33;9.93;;;6.38;;
6392;SDS011;3229;42.674;23.282;2023-07-22T05:46:00;10.55;;;7.40;;
6392;SDS011;3229;42.674;23.282;2023-07-22T05:48:27;13.70;;;7.13;;
6392;SDS011;3229;42.674;23.282;2023-07-22T05:50:54;13.13;;;6.80;;
6392;SDS011;3229;42.674;23.282;2023-07-22T05:53:21;8.45;;;6.28;;
6392;SDS011;3229;42.674;23.282;2023-07-22T05:55:47;17.75;;;7.28;;
6392;SDS011;3229;42.674;23.282;2023-07-22T05:58:16;9.93;;;6.57;;
6392;SDS011;3229;42.674;23.282;2023-07-22T06:00:43;9.77;;;6.05;;
6392;SDS011;3229;42.674;23.282;2023-07-22T06:03:10;8.65;;;7.07;;
6392;SDS011;3229;42.674;23.282;2023-07-22T06:05:37;9.43;;;6.63;;
6392;SDS011;3229;42.674;23.282;2023-07-22T06:08:04;12.70;;;6.78;;
6392;SDS011;3229;42.674;23.282;2023-07-22T06:10:31;12.65;;;7.50;;
6392;SDS011;3229;42.674;23.282;2023-07-22T06:12:58;14.20;;;6.75;;
6392;SDS011;3229;42.674;23.282;2023-07-22T06:15:26;9.68;;;7.80;;
6392;SDS011;3229;42.674;23.282;2023-07-22T06:17:53;15.57;;;7.70;;
6392;SDS011;3229;42.674;23.282;2023-07-22T06:20:19;8.02;;;7.13;;
6392;SDS011;3229;42.674;23.282;2023-07-22T06:22:46;13.70;;;7.05;;
6392;SDS011;3229;42.674;23.282;2023-07-22T06:25:13;12.90;;;7.00;;
6392;SDS011;3229;42.674;23.282;2023-07-22T06:27:40;11.88;;;7.63;;
6392;SDS011;3229;42.674;23.282;2023-07-22T06:30:07;10.80;;;7.22;;
6392;SDS011;3229;42.674;23.282;2023-07-22T06:32:36;12.73;;;7.22;;
6392;SDS011;3229;42.674;23.282;2023-07-22T06:35:03;12.77;;;7.15;;
6392;SDS011;3229;42.674;23.282;2023-07-22T06:37:31;18.13;;;7.18;;
6392;SDS011;3229;42.674;23.282;2023-07-22T06:39:58;12.70;;;6.38;;
6392;SDS011;3229;42.674;23.282;2023-07-22T06:42:24;11.40;;;7.78;;
6392;SDS011;3229;42.674;23.282;2023-07-22T06:44:52;11.57;;;7.03;;
6392;SDS011;3229;42.674;23.282;2023-07-22T06:47:19;10.45;;;7.38;;
6392;SDS011;3229;42.674;23.282;2023-07-22T06:49:47;12.52;;;6.85;;
6392;SDS011;3229;42.674;23.282;2023-07-22T06:52:14;8.00;;;6.40;;
6392;SDS011;3229;42.674;23.282;2023-07-22T06:54:40;10.68;;;7.10;;
6392;SDS011;3229;42.674;23.282;2023-07-22T06:57:07;9.75;;;6.28;;
6392;SDS011;3229;42.674;23.282;2023-07-22T06:59:34;11.00;;;6.53;;
6392;SDS011;3229;42.674;23.282;2023-07-22T07:02:01;13.73;;;6.38;;
6392;SDS011;3229;42.674;23.282;2023-07-22T07:04:29;12.65;;;6.95;;
6392;SDS011;3229;42.674;23.282;2023-07-22T07:06:58;9.05;;;6.90;;
6392;SDS011;3229;42.674;23.282;2023-07-22T07:09:25;16.25;;;7.40;;
6392;SDS011;3229;42.674;23.282;2023-07-22T07:11:51;16.98;;;6.85;;
6392;SDS011;3229;42.674;23.282;2023-07-22T07:14:21;12.55;;;6.65;;
6392;SDS011;3229;42.674;23.282;2023-07-22T07:16:48;10.07;;;7.13;;
6392;SDS011;3229;42.674;23.282;2023-07-22T07:19:15;10.23;;;7.00;;
6392;SDS011;3229;42.674;23.282;2023-07-22T07:21:42;11.52;;;8.07;;
6392;SDS011;3229;42.674;23.282;2023-07-22T07:24:10;16.25;;;7.60;;
6392;SDS011;3229;42.674;23.282;2023-07-22T07:26:37;13.77;;;6.70;;
6392;SDS011;3229;42.674;23.282;2023-07-22T07:29:04;15.77;;;7.63;;
6392;SDS011;3229;42.674;23.282;2023-07-22T07:31:30;13.25;;;7.28;;
6392;SDS011;3229;42.674;23.282;2023-07-22T07:33:57;10.55;;;7.10;;
6392;SDS011;3229;42.674;23.282;2023-07-22T07:36:24;13.25;;;6.97;;
6392;SDS011;3229;42.674;23.282;2023-07-22T07:38:51;11.55;;;7.32;;
6392;SDS011;3229;42.674;23.282;2023-07-22T07:41:19;11.85;;;7.32;;
6392;SDS011;3229;42.674;23.282;2023-07-22T07:43:46;11.50;;;7.75;;
6392;SDS011;3229;42.674;23.282;2023-07-22T07:46:13;10.20;;;7.50;;
6392;SDS011;3229;42.674;23.282;2023-07-22T07:48:44;13.05;;;7.65;;
6392;SDS011;3229;42.674;23.282;2023-07-22T07:51:12;10.80;;;7.20;;
6392;SDS011;3229;42.674;23.282;2023-07-22T07:53:39;17.10;;;7.45;;
6392;SDS011;3229;42.674;23.282;2023-07-22T07:56:06;9.85;;;7.53;;
6392;SDS011;3229;42.674;23.282;2023-07-22T07:58:35;13.57;;;8.05;;
6392;SDS011;3229;42.674;23.282;2023-07-22T08:01:02;15.25;;;7.45;;
6392;SDS011;3229;42.674;23.282;2023-07-22T08:03:29;8.65;;;6.88;;
6392;SDS011;3229;42.674;23.282;2023-07-22T08:05:56;11.20;;;8.25;;
6392;SDS011;3229;42.674;23.282;2023-07-22T08:08:22;9.90;;;7.20;;
6392;SDS011;3229;42.674;23.282;2023-07-22T08:10:57;12.15;;;7.25;;
6392;SDS011;3229;42.674;23.282;2023-07-22T08:13:25;14.18;;;8.43;;
6392;SDS011;3229;42.674;23.282;2023-07-22T08:15:53;12.23;;;7.90;;
6392;SDS011;3229;42.674;23.282;2023-07-22T08:18:20;10.02;;;7.45;;
6392;SDS011;3229;42.674;23.282;2023-07-22T08:20:46;13.23;;;7.13;;
6392;SDS011;3229;42.674;23.282;2023-07-22T08:23:13;10.85;;;8.15;;
6392;SDS011;3229;42.674;23.282;2023-07-22T08:25:40;17.25;;;8.15;;
6392;SDS011;3229;42.674;23.282;2023-07-22T08:28:07;10.25;;;7.53;;
6392;SDS011;3229;42.674;23.282;2023-07-22T08:30:34;13.07;;;7.97;;
6392;SDS011;3229;42.674;23.282;2023-07-22T08:33:02;13.07;;;7.50;;
6392;SDS011;3229;42.674;23.282;2023-07-22T08:35:29;11.73;;;7.95;;
6392;SDS011;3229;42.674;23.282;2023-07-22T08:37:56;13.35;;;7.72;;
6392;SDS011;3229;42.674;23.282;2023-07-22T08:40:23;11.85;;;8.05;;
6392;SDS011;3229;42.674;23.282;2023-07-22T08:42:49;11.23;;;8.75;;
6392;SDS011;3229;42.674;23.282;2023-07-22T08:45:16;13.88;;;7.72;;
6392;SDS011;3229;42.674;23.282;2023-07-22T08:47:46;12.32;;;7.45;;
6392;SDS011;3229;42.674;23.282;2023-07-22T08:50:16;14.35;;;8.05;;
6392;SDS011;3229;42.674;23.282;2023-07-22T08:52:47;14.50;;;7.85;;
6392;SDS011;3229;42.674;23.282;2023-07-22T08:55:14;14.10;;;7.10;;
6392;SDS011;3229;42.674;23.282;2023-07-22T08:57:41;10.98;;;7.18;;
6392;SDS011;3229;42.674;23.282;2023-07-22T09:00:09;18.33;;;8.48;;
6392;SDS011;3229;42.674;23.282;2023-07-22T09:02:37;10.57;;;6.85;;
6392;SDS011;3229;42.674;23.282;2023-07-22T09:05:05;12.00;;;8.13;;
6392;SDS011;3229;42.674;23.282;2023-07-22T09:07:34;12.60;;;7.57;;
6392;SDS011;3229;42.674;23.282;2023-07-22T09:10:02;11.43;;;7.95;;
6392;SDS011;3229;42.674;23.282;2023-07-22T09:12:30;11.25;;;7.30;;
6392;SDS011;3229;42.674;23.282;2023-07-22T09:15:05;11.98;;;7.93;;
6392;SDS011;3229;42.674;23.282;2023-07-22T09:17:34;15.35;;;7.90;;
6392;SDS011;3229;42.674;23.282;2023-07-22T09:20:01;14.38;;;7.40;;
6392;SDS011;3229;42.674;23.282;2023-07-22T09:22:29;14.15;;;8.13;;
6392;SDS011;3229;42.674;23.282;2023-07-22T09:27:42;17.38;;;8.30;;
6392;SDS011;3229;42.674;23.282;2023-07-22T09:30:19;14.40;;;7.78;;
6392;SDS011;3229;42.674;23.282;2023-07-22T09:32:47;15.60;;;7.28;;
6392;SDS011;3229;42.674;23.282;2023-07-22T09:35:14;13.18;;;7.28;;
6392;SDS011;3229;42.674;23.282;2023-07-22T09:37:41;14.80;;;8.50;;
6392;SDS011;3229;42.674;23.282;2023-07-22T09:40:14;18.40;;;8.07;;
6392;SDS011;3229;42.674;23.282;2023-07-22T09:42:43;10.65;;;7.10;;
6392;SDS011;3229;42.674;23.282;2023-07-22T09:45:11;16.45;;;7.30;;
6392;SDS011;3229;42.674;23.282;2023-07-22T09:47:41;10.98;;;7.25;;
6392;SDS011;3229;42.674;23.282;2023-07-22T09:50:10;12.75;;;7.00;;
6392;SDS011;3229;42.674;23.282;2023-07-22T09:52:42;11.82;;;6.78;;
6392;SDS011;3229;42.674;23.282;2023-07-22T09:55:11;11.07;;;7.82;;
6392;SDS011;3229;42.674;23.282;2023-07-22T09:57:40;19.73;;;7.10;;
6392;SDS011;3229;42.674;23.282;2023-07-22T10:00:11;17.63;;;7.22;;
6392;SDS011;3229;42.674;23.282;2023-07-22T10:02:40;12.40;;;7.03;;
6392;SDS011;3229;42.674;23.282;2023-07-22T10:05:10;16.90;;;7.13;;
6392;SDS011;3229;42.674;23.282;2023-07-22T10:07:39;18.80;;;8.32;;
6392;SDS011;3229;42.674;23.282;2023-07-22T10:10:11;18.10;;;8.77;;
6392;SDS011;3229;42.674;23.282;2023-07-22T10:12:41;19.98;;;8.30;;
6392;SDS011;3229;42.674;23.282;2023-07-22T10:15:09;20.05;;;8.43;;
6392;SDS011;3229;42.674;23.282;2023-07-22T10:17:37;15.35;;;7.28;;
6392;SDS011;3229;42.674;23.282;2023-07-22T10:20:04;15.32;;;6.93;;
6392;SDS011;3229;42.674;23.282;2023-07-22T10:22:34;13.02;;;7.07;;
6392;SDS011;3229;42.674;23.282;2023-07-22T10:25:04;16.98;;;7.88;;
6392;SDS011;3229;42.674;23.282;2023-07-22T10:27:32;13.93;;;6.97;;
6392;SDS011;3229;42.674;23.282;2023-07-22T10:30:01;17.10;;;6.10;;
6392;SDS011;3229;42.674;23.282;2023-07-22T10:32:32;18.75;;;5.97;;
6392;SDS011;3229;42.674;23.282;2023-07-22T10:35:00;18.73;;;5.80;;
6392;SDS011;3229;42.674;23.282;2023-07-22T10:37:29;18.17;;;5.45;;
6392;SDS011;3229;42.674;23.282;2023-07-22T10:39:58;15.82;;;5.75;;
6392;SDS011;3229;42.674;23.282;2023-07-22T10:42:26;13.65;;;5.88;;
6392;SDS011;3229;42.674;23.282;2023-07-22T10:44:53;17.83;;;5.70;;
6392;SDS011;3229;42.674;23.282;2023-07-22T10:47:34;28.73;;;7.10;;
6392;SDS011;3229;42.674;23.282;2023-07-22T10:50:06;15.82;;;6.18;;
6392;SDS011;3229;42.674;23.282;2023-07-22T10:52:38;18.27;;;6.40;;
6392;SDS011;3229;42.674;23.282;2023-07-22T10:55:13;20.42;;;6.15;;
6392;SDS011;3229;42.674;23.282;2023-07-22T10:57:47;20.30;;;6.03;;
6392;SDS011;3229;42.674;23.282;2023-07-22T11:00:19;19.48;;;6.55;;
6392;SDS011;3229;42.674;23.282;2023-07-22T11:02:48;16.35;;;5.93;;
6392;SDS011;3229;42.674;23.282;2023-07-22T11:05:48;13.88;;;5.63;;
6392;SDS011;3229;42.674;23.282;2023-07-22T11:08:36;20.00;;;6.68;;
6392;SDS011;3229;42.674;23.282;2023-07-22T11:11:04;16.27;;;6.55;;
6392;SDS011;3229;42.674;23.282;2023-07-22T11:13:34;19.90;;;5.97;;
6392;SDS011;3229;42.674;23.282;2023-07-22T11:16:04;25.00;;;6.47;;
6392;SDS011;3229;42.674;23.282;2023-07-22T11:18:37;14.80;;;5.40;;
6392;SDS011;3229;42.674;23.282;2023-07-22T11:21:07;22.50;;;6.32;;
6392;SDS011;3229;42.674;23.282;2023-07-22T11:23:35;20.13;;;6.40;;
6392;SDS011;3229;42.674;23.282;2023-07-22T11:26:02;18.52;;;5.85;;
6392;SDS011;3229;42.674;23.282;2023-07-22T11:28:30;23.98;;;6.15;;
6392;SDS011;3229;42.674;23.282;2023-07-22T11:30:57;24.48;;;6.85;;
6392;SDS011;3229;42.674;23.282;2023-07-22T11:33:26;13.48;;;6.03;;
6392;SDS011;3229;42.674;23.282;2023-07-22T11:36:05;19.50;;;6.07;;
6392;SDS011;3229;42.674;23.282;2023-07-22T11:38:32;20.90;;;5.57;;
6392;SDS011;3229;42.674;23.282;2023-07-22T11:40:59;24.70;;;6.13;;
6392;SDS011;3229;42.674;23.282;2023-07-22T11:43:26;26.52;;;6.35;;
6392;SDS011;3229;42.674;23.282;2023-07-22T11:45:53;21.27;;;5.93;;
6392;SDS011;3229;42.674;23.282;2023-07-22T11:48:20;21.42;;;6.50;;
6392;SDS011;3229;42.674;23.282;2023-07-22T11:50:47;23.35;;;7.80;;
6392;SDS011;3229;42.674;23.282;2023-07-22T11:53:16;18.85;;;5.30;;
6392;SDS011;3229;42.674;23.282;2023-07-22T11:55:42;21.27;;;6.15;;
6392;SDS011;3229;42.674;23.282;2023-07-22T11:58:10;18.75;;;5.97;;
6392;SDS011;3229;42.674;23.282;2023-07-22T12:00:37;16.90;;;6.03;;
6392;SDS011;3229;42.674;23.282;2023-07-22T12:03:09;14.35;;;5.78;;
6392;SDS011;3229;42.674;23.282;2023-07-22T12:05:36;19.52;;;6.25;;
6392;SDS011;3229;42.674;23.282;2023-07-22T12:08:03;18.83;;;5.65;;
6392;SDS011;3229;42.674;23.282;2023-07-22T12:10:33;17.77;;;5.72;;
6392;SDS011;3229;42.674;23.282;2023-07-22T12:13:00;20.75;;;5.60;;
6392;SDS011;3229;42.674;23.282;2023-07-22T12:15:27;14.20;;;5.60;;
6392;SDS011;3229;42.674;23.282;2023-07-22T12:17:54;26.23;;;7.03;;
6392;SDS011;3229;42.674;23.282;2023-07-22T12:20:23;15.57;;;5.53;;
6392;SDS011;3229;42.674;23.282;2023-07-22T12:22:50;22.40;;;6.07;;
6392;SDS011;3229;42.674;23.282;2023-07-22T12:25:17;21.42;;;5.80;;
6392;SDS011;3229;42.674;23.282;2023-07-22T12:27:45;25.77;;;5.88;;
6392;SDS011;3229;42.674;23.282;2023-07-22T12:30:12;15.35;;;5.72;;
6392;SDS011;3229;42.674;23.282;2023-07-22T12:32:39;17.38;;;5.90;;
6392;SDS011;3229;42.674;23.282;2023-07-22T12:35:06;21.15;;;6.53;;
6392;SDS011;3229;42.674;23.282;2023-07-22T12:37:34;22.63;;;5.70;;
6392;SDS011;3229;42.674;23.282;2023-07-22T12:40:01;20.27;;;5.47;;
6392;SDS011;3229;42.674;23.282;2023-07-22T12:42:31;12.75;;;5.13;;
6392;SDS011;3229;42.674;23.282;2023-07-22T12:44:59;21.10;;;5.82;;
6392;SDS011;3229;42.674;23.282;2023-07-22T12:47:26;19.85;;;5.72;;
6392;SDS011;3229;42.674;23.282;2023-07-22T12:49:52;15.23;;;6.18;;
6392;SDS011;3229;42.674;23.282;2023-07-22T12:52:19;15.45;;;5.00;;
6392;SDS011;3229;42.674;23.282;2023-07-22T12:54:46;16.08;;;6.18;;
6392;SDS011;3229;42.674;23.282;2023-07-22T12:57:13;20.48;;;5.18;;
6392;SDS011;3229;42.674;23.282;2023-07-22T12:59:39;14.73;;;5.43;;
6392;SDS011;3229;42.674;23.282;2023-07-22T13:02:07;19.35;;;5.65;;
6392;SDS011;3229;42.674;23.282;2023-07-22T13:04:34;19.90;;;5.82;;
6392;SDS011;3229;42.674;23.282;2023-07-22T13:07:01;23.80;;;5.78;;
6392;SDS011;3229;42.674;23.282;2023-07-22T13:09:28;19.42;;;5.80;;
6392;SDS011;3229;42.674;23.282;2023-07-22T13:11:55;17.55;;;4.97;;
6392;SDS011;3229;42.674;23.282;2023-07-22T13:14:22;15.57;;;5.90;;
6392;SDS011;3229;42.674;23.282;2023-07-22T13:16:49;14.43;;;5.90;;
6392;SDS011;3229;42.674;23.282;2023-07-22T13:19:17;21.00;;;5.45;;
6392;SDS011;3229;42.674;23.282;2023-07-22T13:21:43;16.60;;;5.93;;
6392;SDS011;3229;42.674;23.282;2023-07-22T13:24:10;17.13;;;5.72;;
6392;SDS011;3229;42.674;23.282;2023-07-22T13:26:37;17.90;;;5.93;;
6392;SDS011;3229;42.674;23.282;2023-07-22T13:29:04;21.27;;;6.45;;
6392;SDS011;3229;42.674;23.282;2023-07-22T13:31:30;21.63;;;5.82;;
6392;SDS011;3229;42.674;23.282;2023-07-22T13:33:57;20.10;;;5.22;;
6392;SDS011;3229;42.674;23.282;2023-07-22T13:36:25;17.75;;;5.35;;
6392;SDS011;3229;42.674;23.282;2023-07-22T13:38:52;17.30;;;5.20;;
6392;SDS011;3229;42.674;23.282;2023-07-22T13:41:20;22.60;;;5.65;;
6392;SDS011;3229;42.674;23.282;2023-07-22T13:43:47;16.92;;;5.63;;
6392;SDS011;3229;42.674;23.282;2023-07-22T13:46:14;20.50;;;5.72;;
6392;SDS011;3229;42.674;23.282;2023-07-22T13:48:41;21.63;;;5.75;;
6392;SDS011;3229;42.674;23.282;2023-07-22T13:51:08;20.27;;;5.40;;
6392;SDS011;3229;42.674;23.282;2023-07-22T13:53:36;25.30;;;6.43;;
6392;SDS011;3229;42.674;23.282;2023-07-22T13:56:03;22.85;;;5.13;;
6392;SDS011;3229;42.674;23.282;2023-07-22T13:58:30;23.38;;;6.18;;
6392;SDS011;3229;42.674;23.282;2023-07-22T14:00:57;24.10;;;6.85;;
6392;SDS011;3229;42.674;23.282;2023-07-22T14:03:24;24.65;;;5.85;;
6392;SDS011;3229;42.674;23.282;2023-07-22T14:05:50;23.50;;;5.50;;
6392;SDS011;3229;42.674;23.282;2023-07-22T14:08:23;34.67;;;7.05;;
6392;SDS011;3229;42.674;23.282;2023-07-22T14:10:51;26.92;;;6.15;;
6392;SDS011;3229;42.674;23.282;2023-07-22T14:13:19;25.90;;;6.38;;
6392;SDS011;3229;42.674;23.282;2023-07-22T14:15:46;23.92;;;6.88;;
6392;SDS011;3229;42.674;23.282;2023-07-22T14:18:13;24.15;;;6.57;;
6392;SDS011;3229;42.674;23.282;2023-07-22T14:20:42;17.05;;;5.40;;
6392;SDS011;3229;42.674;23.282;2023-07-22T14:23:10;20.90;;;6.15;;
6392;SDS011;3229;42.674;23.282;2023-07-22T14:25:37;21.25;;;5.20;;
6392;SDS011;3229;42.674;23.282;2023-07-22T14:28:05;24.60;;;5.72;;
6392;SDS011;3229;42.674;23.282;2023-07-22T14:30:32;21.85;;;5.28;;
6392;SDS011;3229;42.674;23.282;2023-07-22T14:32:59;15.85;;;5.28;;
6392;SDS011;3229;42.674;23.282;2023-07-22T14:35:26;16.02;;;5.43;;
6392;SDS011;3229;42.674;23.282;2023-07-22T14:37:52;24.13;;;6.45;;
6392;SDS011;3229;42.674;23.282;2023-07-22T14:40:19;20.30;;;5.28;;
6392;SDS011;3229;42.674;23.282;2023-07-22T14:42:46;21.05;;;5.25;;
6392;SDS011;3229;42.674;23.282;2023-07-22T14:45:14;25.73;;;6.15;;
6392;SDS011;3229;42.674;23.282;2023-07-22T14:47:41;21.40;;;5.70;;
6392;SDS011;3229;42.674;23.282;2023-07-22T14:50:09;17.75;;;5.78;;
6392;SDS011;3229;42.674;23.282;2023-07-22T14:52:36;24.13;;;6.82;;
6392;SDS011;3229;42.674;23.282;2023-07-22T14:55:03;19.88;;;5.25;;
6392;SDS011;3229;42.674;23.282;2023-07-22T14:57:30;18.77;;;5.60;;